Time;durP1;ratioP1;P1;durP2;ratioP2;P2;SDS_P1;SDS_P2;PMS_P1;PMS_P2;Temp;Humidity;BMP_temperature;BMP_pressure;BME280_temperature;BME280_humidity;BME280_pressure;Samples;Min_cycle;Max_cycle;Signal;HPM_P1;HPM_P2
2023/05/17 00:01:13;;;;;;;3.97;3.10;;;;;;;;;;4982323;28;20093;-60
2023/05/17 00:03:39;;;;;;;4.30;3.58;;;;;;;;;;4979726;28;20044;-60
2023/05/17 00:06:04;;;;;;;4.53;3.20;;;;;;;;;;4980004;28;20564;-60
2023/05/17 00:08:30;;;;;;;3.03;2.80;;;;;;;;;;4978318;28;20165;-60
2023/05/17 00:10:56;;;;;;;4.65;3.10;;;;;;;;;;4981492;28;20513;-60
2023/05/17 00:13:21;;;;;;;3.80;3.45;;;;;;;;;;4979614;28;20034;-60
2023/05/17 00:15:47;;;;;;;3.20;2.90;;;;;;;;;;4980255;28;20042;-58
2023/05/17 00:18:12;;;;;;;3.38;3.08;;;;;;;;;;4978096;28;20395;-59
2023/05/17 00:20:38;;;;;;;3.10;2.80;;;;;;;;;;4981512;28;20478;-59
2023/05/17 00:23:03;;;;;;;3.30;2.97;;;;;;;;;;4978529;28;20034;-60
2023/05/17 00:25:29;;;;;;;2.88;2.58;;;;;;;;;;4981228;28;20050;-60
2023/05/17 00:27:54;;;;;;;2.50;2.30;;;;;;;;;;4979369;28;20030;-60
2023/05/17 00:30:20;;;;;;;2.70;2.50;;;;;;;;;;4978862;28;20030;-60
2023/05/17 00:32:47;;;;;;;3.15;2.30;;;;;;;;;;4994646;28;20154;-60
2023/05/17 00:35:12;;;;;;;1.95;1.73;;;;;;;;;;4980301;28;20042;-60
2023/05/17 00:37:38;;;;;;;2.83;2.03;;;;;;;;;;4978622;28;20097;-59
2023/05/17 00:40:04;;;;;;;2.28;1.95;;;;;;;;;;4978808;28;20112;-60
2023/05/17 00:42:29;;;;;;;2.45;2.00;;;;;;;;;;4977606;28;20065;-59
2023/05/17 00:44:55;;;;;;;2.63;2.42;;;;;;;;;;4978089;28;20137;-61
2023/05/17 00:47:21;;;;;;;2.05;1.95;;;;;;;;;;4979793;28;20010;-59
2023/05/17 00:49:46;;;;;;;1.95;1.80;;;;;;;;;;4980621;28;20050;-59
2023/05/17 00:52:12;;;;;;;1.77;1.55;;;;;;;;;;4981644;28;20038;-59
2023/05/17 00:54:38;;;;;;;1.77;1.67;;;;;;;;;;4978727;28;20385;-59
2023/05/17 00:57:04;;;;;;;1.25;1.25;;;;;;;;;;4978963;28;20096;-60
2023/05/17 00:59:32;;;;;;;1.33;1.23;;;;;;;;;;4982453;28;20385;-59
2023/05/17 01:01:58;;;;;;;1.80;1.38;;;;;;;;;;4981666;28;20042;-58
2023/05/17 01:04:23;;;;;;;1.75;1.65;;;;;;;;;;4980693;28;20477;-60
2023/05/17 01:06:49;;;;;;;2.13;1.92;;;;;;;;;;4978129;28;20464;-60
2023/05/17 01:09:15;;;;;;;1.60;1.50;;;;;;;;;;4978664;28;20045;-59
2023/05/17 01:11:55;;;;;;;1.73;1.50;;;;;;;;;;4977787;28;20030;-60
2023/05/17 01:14:29;;;;;;;2.55;1.55;;;;;;;;;;4994612;28;20607;-59
2023/05/17 01:17:03;;;;;;;1.88;1.50;;;;;;;;;;4977887;28;20035;-60
2023/05/17 01:19:31;;;;;;;2.85;1.92;;;;;;;;;;4977279;28;20534;-60
2023/05/17 01:21:57;;;;;;;1.75;1.65;;;;;;;;;;4976206;28;20126;-59
2023/05/17 01:24:25;;;;;;;1.40;1.30;;;;;;;;;;4976967;28;20208;-61
2023/05/17 01:26:51;;;;;;;2.00;1.80;;;;;;;;;;4979761;28;20042;-59
2023/05/17 01:29:20;;;;;;;1.80;1.70;;;;;;;;;;4977642;28;20070;-60
2023/05/17 01:31:47;;;;;;;2.10;1.90;;;;;;;;;;4978260;28;20033;-60
2023/05/17 01:34:13;;;;;;;2.33;2.13;;;;;;;;;;4978547;28;20631;-60
2023/05/17 01:36:38;;;;;;;1.60;1.45;;;;;;;;;;4978284;28;20604;-60
2023/05/17 01:39:04;;;;;;;2.03;1.92;;;;;;;;;;4981929;28;20038;-59
2023/05/17 01:41:33;;;;;;;1.95;1.77;;;;;;;;;;4984021;28;20042;-59
2023/05/17 01:44:14;;;;;;;1.70;1.60;;;;;;;;;;4982340;28;20038;-57
2023/05/17 01:46:40;;;;;;;1.77;1.67;;;;;;;;;;4981737;28;20053;-60
2023/05/17 01:49:08;;;;;;;1.48;1.38;;;;;;;;;;4985002;28;20050;-61
2023/05/17 01:51:38;;;;;;;3.33;1.48;;;;;;;;;;4986161;28;20033;-60
2023/05/17 01:54:10;;;;;;;1.30;1.20;;;;;;;;;;4980809;28;20206;-58
2023/05/17 01:56:40;;;;;;;1.30;1.25;;;;;;;;;;4986695;28;20394;-59
2023/05/17 01:59:06;;;;;;;1.80;1.70;;;;;;;;;;4988948;28;20030;-59
2023/05/17 02:01:32;;;;;;;1.50;1.40;;;;;;;;;;4973600;28;20042;-60
2023/05/17 02:03:57;;;;;;;1.80;1.70;;;;;;;;;;4982675;28;20039;-60
2023/05/17 02:06:22;;;;;;;1.55;1.45;;;;;;;;;;4986634;28;20129;-60
2023/05/17 02:08:48;;;;;;;2.33;1.38;;;;;;;;;;4981768;28;20038;-60
2023/05/17 02:11:13;;;;;;;1.30;1.20;;;;;;;;;;4982501;28;20103;-59
2023/05/17 02:13:39;;;;;;;1.30;1.20;;;;;;;;;;4981470;28;20496;-60
2023/05/17 02:16:05;;;;;;;2.35;2.15;;;;;;;;;;4983088;28;20108;-62
2023/05/17 02:18:33;;;;;;;2.80;1.30;;;;;;;;;;4993987;28;20123;-59
2023/05/17 02:21:00;;;;;;;1.50;1.40;;;;;;;;;;4982146;28;20054;-59
2023/05/17 02:23:25;;;;;;;4.53;1.65;;;;;;;;;;4981264;28;20604;-60
2023/05/17 02:25:51;;;;;;;1.40;1.30;;;;;;;;;;4984846;28;20039;-60
2023/05/17 02:28:16;;;;;;;1.67;1.58;;;;;;;;;;4970886;28;20594;-61
2023/05/17 02:30:43;;;;;;;1.35;1.35;;;;;;;;;;4982960;28;20058;-60
2023/05/17 02:33:08;;;;;;;1.25;1.10;;;;;;;;;;4995768;28;20165;-60
2023/05/17 02:35:34;;;;;;;1.30;1.30;;;;;;;;;;4983030;28;20042;-60
2023/05/17 02:37:59;;;;;;;1.20;1.20;;;;;;;;;;4980239;28;20038;-59
2023/05/17 02:40:25;;;;;;;1.30;1.30;;;;;;;;;;4980674;28;20121;-60
2023/05/17 02:42:50;;;;;;;1.40;1.30;;;;;;;;;;4978635;28;20444;-59
2023/05/17 02:45:16;;;;;;;1.10;1.10;;;;;;;;;;4981767;28;20484;-60
2023/05/17 02:47:41;;;;;;;1.27;1.23;;;;;;;;;;4980895;28;20042;-59
2023/05/17 02:50:07;;;;;;;1.27;1.17;;;;;;;;;;4980247;28;20917;-59
2023/05/17 02:52:33;;;;;;;1.50;1.40;;;;;;;;;;4985924;28;20054;-60
2023/05/17 02:55:01;;;;;;;1.30;1.20;;;;;;;;;;4980745;28;20383;-57
2023/05/17 02:57:27;;;;;;;2.03;1.83;;;;;;;;;;4979589;28;20348;-63
2023/05/17 02:59:53;;;;;;;1.83;1.40;;;;;;;;;;4985368;28;20034;-60
2023/05/17 03:02:18;;;;;;;1.30;1.20;;;;;;;;;;4979959;28;20038;-60
2023/05/17 03:04:44;;;;;;;1.30;1.30;;;;;;;;;;4969667;28;20413;-61
2023/05/17 03:07:10;;;;;;;1.20;1.20;;;;;;;;;;4964893;28;20543;-60
2023/05/17 03:09:36;;;;;;;1.38;1.30;;;;;;;;;;4994433;28;20096;-61
2023/05/17 03:12:02;;;;;;;1.20;1.20;;;;;;;;;;4980044;28;20046;-59
2023/05/17 03:14:30;;;;;;;1.27;1.25;;;;;;;;;;4995946;28;20037;-61
2023/05/17 03:16:56;;;;;;;1.48;1.20;;;;;;;;;;4982802;28;20035;-61
2023/05/17 03:19:22;;;;;;;1.45;1.35;;;;;;;;;;4984499;28;20508;-61
2023/05/17 03:21:48;;;;;;;2.00;1.90;;;;;;;;;;4984074;28;20085;-61
2023/05/17 03:24:14;;;;;;;1.70;1.60;;;;;;;;;;4967670;28;20046;-61
2023/05/17 03:26:41;;;;;;;1.25;1.25;;;;;;;;;;4979533;28;20122;-60
2023/05/17 03:29:08;;;;;;;1.60;1.50;;;;;;;;;;4983798;28;20042;-61
2023/05/17 03:31:34;;;;;;;1.55;1.45;;;;;;;;;;4982274;28;20036;-61
2023/05/17 03:34:00;;;;;;;3.83;2.25;;;;;;;;;;4984133;28;20181;-60
2023/05/17 03:36:25;;;;;;;2.00;1.83;;;;;;;;;;4980079;28;20960;-61
2023/05/17 03:38:51;;;;;;;1.38;1.30;;;;;;;;;;4983488;28;20057;-61
2023/05/17 03:41:16;;;;;;;2.08;1.90;;;;;;;;;;4977612;28;20059;-62
2023/05/17 03:43:42;;;;;;;2.08;1.92;;;;;;;;;;4993816;28;20149;-60
2023/05/17 03:46:10;;;;;;;1.70;1.60;;;;;;;;;;4977006;28;20490;-60
2023/05/17 03:48:35;;;;;;;1.65;1.55;;;;;;;;;;4968751;28;20532;-61
2023/05/17 03:51:02;;;;;;;1.88;1.77;;;;;;;;;;4996281;28;20403;-61
2023/05/17 03:53:27;;;;;;;1.77;1.67;;;;;;;;;;4980611;28;20611;-61
2023/05/17 03:55:53;;;;;;;1.40;1.30;;;;;;;;;;4980954;28;20042;-61
2023/05/17 03:58:19;;;;;;;1.45;1.35;;;;;;;;;;4982289;28;20061;-60
2023/05/17 04:00:45;;;;;;;2.65;1.92;;;;;;;;;;4979275;28;20129;-61
2023/05/17 04:03:14;;;;;;;1.58;1.48;;;;;;;;;;4978453;28;20121;-62
2023/05/17 04:05:40;;;;;;;1.65;1.55;;;;;;;;;;4978818;28;20047;-61
2023/05/17 04:08:06;;;;;;;3.53;1.98;;;;;;;;;;4979400;28;20088;-61
2023/05/17 04:10:31;;;;;;;1.63;1.52;;;;;;;;;;4979193;28;20101;-61
2023/05/17 04:12:57;;;;;;;1.50;1.40;;;;;;;;;;4980627;28;20029;-61
2023/05/17 04:15:23;;;;;;;2.30;2.17;;;;;;;;;;4985330;28;20053;-61
2023/05/17 04:17:48;;;;;;;1.75;1.65;;;;;;;;;;4977854;28;20058;-61
2023/05/17 04:20:14;;;;;;;1.33;1.33;;;;;;;;;;4982406;28;20065;-59
2023/05/17 04:22:40;;;;;;;1.63;1.52;;;;;;;;;;4970775;28;20073;-61
2023/05/17 04:25:08;;;;;;;3.72;1.40;;;;;;;;;;4968371;28;20051;-60
2023/05/17 04:27:35;;;;;;;1.63;1.48;;;;;;;;;;4978089;28;20448;-61
2023/05/17 04:30:03;;;;;;;3.17;1.98;;;;;;;;;;4968538;28;20049;-61
2023/05/17 04:32:29;;;;;;;1.40;1.30;;;;;;;;;;4979209;28;20054;-60
2023/05/17 04:34:55;;;;;;;1.75;1.30;;;;;;;;;;4977309;28;20437;-62
2023/05/17 04:37:21;;;;;;;1.70;1.60;;;;;;;;;;4980316;28;20172;-60
2023/05/17 04:39:51;;;;;;;1.58;1.48;;;;;;;;;;4982316;28;20081;-61
2023/05/17 04:42:17;;;;;;;2.10;2.00;;;;;;;;;;4976188;28;20042;-61
2023/05/17 04:44:48;;;;;;;4.35;2.00;;;;;;;;;;4968053;28;20042;-60
2023/05/17 04:47:14;;;;;;;1.77;1.65;;;;;;;;;;4978675;28;20117;-62
2023/05/17 04:49:40;;;;;;;1.50;1.40;;;;;;;;;;4983833;28;20093;-61
2023/05/17 04:52:06;;;;;;;1.70;1.60;;;;;;;;;;4980489;28;20034;-61
2023/05/17 04:54:33;;;;;;;3.25;1.42;;;;;;;;;;4985692;28;20402;-60
2023/05/17 04:56:58;;;;;;;1.50;1.40;;;;;;;;;;4969365;28;20050;-60
2023/05/17 05:00:00;;;;;;;1.67;1.58;;;;;;;;;;4975313;28;20038;-61
2023/05/17 05:02:26;;;;;;;1.80;1.55;;;;;;;;;;4992795;28;20029;-60
2023/05/17 05:04:51;;;;;;;3.50;1.73;;;;;;;;;;4993566;28;20046;-66
2023/05/17 05:07:17;;;;;;;1.67;1.30;;;;;;;;;;4984368;28;20512;-69
2023/05/17 05:09:44;;;;;;;1.55;1.45;;;;;;;;;;4994921;28;20125;-58
2023/05/17 05:12:11;;;;;;;2.80;2.53;;;;;;;;;;4993128;28;20081;-60
2023/05/17 05:14:37;;;;;;;1.60;1.50;;;;;;;;;;4985853;28;20046;-60
2023/05/17 05:17:03;;;;;;;1.42;1.33;;;;;;;;;;4986849;28;20042;-59
2023/05/17 05:19:28;;;;;;;5.35;1.70;;;;;;;;;;4973298;28;20118;-60
2023/05/17 05:21:54;;;;;;;2.95;1.75;;;;;;;;;;4986705;28;20494;-61
2023/05/17 05:24:20;;;;;;;1.67;1.58;;;;;;;;;;4988566;28;20046;-60
2023/05/17 05:26:46;;;;;;;1.83;1.73;;;;;;;;;;4982380;28;20046;-61
2023/05/17 05:29:15;;;;;;;2.10;1.90;;;;;;;;;;4998119;28;20156;-61
2023/05/17 05:31:40;;;;;;;4.82;2.55;;;;;;;;;;4985525;28;20279;-63
2023/05/17 05:34:07;;;;;;;2.65;1.98;;;;;;;;;;4984968;28;20026;-60
2023/05/17 05:36:33;;;;;;;3.08;1.70;;;;;;;;;;4970822;28;20042;-60
2023/05/17 05:39:00;;;;;;;1.88;1.60;;;;;;;;;;4984128;28;20035;-60
2023/05/17 05:41:27;;;;;;;1.83;1.73;;;;;;;;;;4971993;28;20027;-59
2023/05/17 05:43:52;;;;;;;1.52;1.42;;;;;;;;;;4985443;28;20718;-60
2023/05/17 05:46:18;;;;;;;1.83;1.73;;;;;;;;;;4982043;28;20405;-60
2023/05/17 05:48:43;;;;;;;2.42;1.70;;;;;;;;;;4979942;28;20034;-60
2023/05/17 05:51:09;;;;;;;3.08;1.88;;;;;;;;;;4972327;28;20038;-60
2023/05/17 05:53:38;;;;;;;1.73;1.63;;;;;;;;;;4997655;28;20042;-60
2023/05/17 05:56:04;;;;;;;2.20;1.70;;;;;;;;;;4967986;28;20801;-61
2023/05/17 05:58:30;;;;;;;2.50;1.80;;;;;;;;;;4980422;28;20577;-60
2023/05/17 06:00:56;;;;;;;4.43;1.60;;;;;;;;;;4984186;28;20125;-60
2023/05/17 06:03:24;;;;;;;1.75;1.63;;;;;;;;;;4981698;28;20038;-60
2023/05/17 06:05:49;;;;;;;1.52;1.40;;;;;;;;;;4982562;28;20089;-61
2023/05/17 06:08:15;;;;;;;2.45;1.70;;;;;;;;;;4982496;28;20033;-59
2023/05/17 06:10:40;;;;;;;1.60;1.50;;;;;;;;;;4982712;28;20572;-60
2023/05/17 06:13:06;;;;;;;1.55;1.30;;;;;;;;;;4983610;28;20254;-60
2023/05/17 06:15:32;;;;;;;1.70;1.60;;;;;;;;;;4982203;28;20030;-60
2023/05/17 06:17:57;;;;;;;2.55;1.73;;;;;;;;;;4980133;28;20184;-61
2023/05/17 06:20:23;;;;;;;2.38;2.13;;;;;;;;;;4978755;28;20184;-60
2023/05/17 06:22:48;;;;;;;3.55;2.08;;;;;;;;;;4982214;28;20072;-60
2023/05/17 06:25:13;;;;;;;1.73;1.63;;;;;;;;;;4981208;28;20054;-61
2023/05/17 06:27:39;;;;;;;2.13;1.95;;;;;;;;;;4982544;28;20043;-56
2023/05/17 06:30:05;;;;;;;1.60;1.50;;;;;;;;;;4983203;28;20698;-59
2023/05/17 06:32:30;;;;;;;3.13;1.73;;;;;;;;;;4981120;28;20070;-58
2023/05/17 06:34:56;;;;;;;2.42;1.70;;;;;;;;;;4983544;28;20042;-59
2023/05/17 06:37:21;;;;;;;3.03;1.70;;;;;;;;;;4985362;28;20043;-59
2023/05/17 06:39:49;;;;;;;3.45;1.85;;;;;;;;;;4994153;28;20796;-58
2023/05/17 06:42:15;;;;;;;5.93;2.45;;;;;;;;;;4981019;28;20114;-59
2023/05/17 06:44:40;;;;;;;3.13;2.10;;;;;;;;;;4981452;28;20121;-58
2023/05/17 06:47:05;;;;;;;3.97;1.70;;;;;;;;;;4984714;28;20038;-59
2023/05/17 06:49:34;;;;;;;3.95;2.05;;;;;;;;;;4979931;28;20564;-59
2023/05/17 06:52:02;;;;;;;3.15;2.15;;;;;;;;;;4985139;28;20043;-58
2023/05/17 06:54:28;;;;;;;2.95;1.85;;;;;;;;;;4979172;28;20398;-59
2023/05/17 06:56:53;;;;;;;1.90;1.80;;;;;;;;;;4977087;28;20185;-59
2023/05/17 06:59:19;;;;;;;1.60;1.45;;;;;;;;;;4981464;28;20490;-59
2023/05/17 07:01:44;;;;;;;2.35;1.98;;;;;;;;;;4978661;28;20123;-61
2023/05/17 07:04:10;;;;;;;1.75;1.65;;;;;;;;;;4982007;28;20035;-59
2023/05/17 07:06:35;;;;;;;2.50;2.25;;;;;;;;;;4982579;28;20061;-58
2023/05/17 07:09:01;;;;;;;2.55;1.80;;;;;;;;;;4983234;28;20122;-59
2023/05/17 07:11:26;;;;;;;2.17;1.85;;;;;;;;;;4980593;28;20548;-59
2023/05/17 07:13:52;;;;;;;2.40;2.20;;;;;;;;;;4981168;28;20030;-58
2023/05/17 07:16:17;;;;;;;4.28;2.10;;;;;;;;;;4982988;28;20530;-58
2023/05/17 07:18:43;;;;;;;3.38;2.00;;;;;;;;;;4983194;28;20077;-58
2023/05/17 07:21:08;;;;;;;2.17;1.98;;;;;;;;;;4979741;28;20081;-58
2023/05/17 07:23:33;;;;;;;2.10;1.90;;;;;;;;;;4980703;28;20040;-59
2023/05/17 07:25:59;;;;;;;2.30;2.10;;;;;;;;;;4979181;28;20842;-59
2023/05/17 07:28:25;;;;;;;1.90;1.80;;;;;;;;;;4980966;28;20081;-59
2023/05/17 07:30:50;;;;;;;2.25;2.13;;;;;;;;;;4967201;28;20030;-59
2023/05/17 07:33:15;;;;;;;2.33;1.83;;;;;;;;;;4979507;28;20080;-58
2023/05/17 07:35:41;;;;;;;3.00;2.00;;;;;;;;;;4981461;28;20042;-58
2023/05/17 07:38:06;;;;;;;3.03;2.30;;;;;;;;;;4979840;28;20117;-60
2023/05/17 07:40:31;;;;;;;2.30;2.20;;;;;;;;;;4980712;28;20560;-60
2023/05/17 07:42:57;;;;;;;3.03;2.33;;;;;;;;;;4977770;28;20156;-59
2023/05/17 07:45:22;;;;;;;2.08;1.98;;;;;;;;;;4979441;28;20116;-59
2023/05/17 07:47:48;;;;;;;1.42;1.33;;;;;;;;;;4981448;28;20315;-61
2023/05/17 07:50:13;;;;;;;1.70;1.60;;;;;;;;;;4982792;28;20042;-60
2023/05/17 07:52:39;;;;;;;2.03;1.88;;;;;;;;;;4981638;28;20088;-58
2023/05/17 07:55:04;;;;;;;2.38;1.95;;;;;;;;;;4979825;28;20099;-59
2023/05/17 07:57:30;;;;;;;1.58;1.48;;;;;;;;;;4982274;28;20046;-60
2023/05/17 07:59:55;;;;;;;1.80;1.70;;;;;;;;;;4982336;28;20029;-60
2023/05/17 08:02:21;;;;;;;1.70;1.60;;;;;;;;;;4980282;28;20035;-59
2023/05/17 08:04:46;;;;;;;2.05;1.95;;;;;;;;;;4980899;28;20092;-61
2023/05/17 08:07:12;;;;;;;2.20;2.00;;;;;;;;;;4980249;28;20077;-60
2023/05/17 08:09:39;;;;;;;6.03;3.03;;;;;;;;;;4978556;28;20030;-58
2023/05/17 08:12:04;;;;;;;3.08;2.47;;;;;;;;;;4982880;28;20424;-59
2023/05/17 08:14:30;;;;;;;2.03;1.92;;;;;;;;;;4988450;28;20110;-59
2023/05/17 08:16:56;;;;;;;6.38;2.30;;;;;;;;;;4980251;28;20035;-60
2023/05/17 08:19:21;;;;;;;7.18;5.22;;;;;;;;;;4979681;28;20454;-60
2023/05/17 08:21:48;;;;;;;3.10;1.70;;;;;;;;;;4979167;28;20039;-59
2023/05/17 08:24:13;;;;;;;3.22;2.13;;;;;;;;;;4978399;28;20042;-59
2023/05/17 08:26:39;;;;;;;4.68;1.77;;;;;;;;;;4980165;28;20046;-58
2023/05/17 08:29:05;;;;;;;2.30;2.10;;;;;;;;;;4981802;28;20042;-59
2023/05/17 08:31:31;;;;;;;3.03;2.75;;;;;;;;;;4977758;28;20500;-58
2023/05/17 08:33:56;;;;;;;2.28;2.08;;;;;;;;;;4981897;28;20045;-59
2023/05/17 08:36:22;;;;;;;2.67;2.47;;;;;;;;;;4982341;28;20513;-57
2023/05/17 08:38:47;;;;;;;2.50;2.15;;;;;;;;;;4978637;28;20609;-59
2023/05/17 08:41:13;;;;;;;2.45;2.20;;;;;;;;;;4976984;28;20042;-60
2023/05/17 08:43:38;;;;;;;2.03;1.77;;;;;;;;;;4980232;28;20058;-59
2023/05/17 08:46:04;;;;;;;2.13;2.03;;;;;;;;;;4980012;28;20052;-59
2023/05/17 08:48:29;;;;;;;5.10;2.85;;;;;;;;;;4980048;28;20034;-61
2023/05/17 08:50:56;;;;;;;4.35;1.95;;;;;;;;;;4978217;28;20037;-60
2023/05/17 08:53:22;;;;;;;2.65;2.05;;;;;;;;;;4979930;28;20162;-61
2023/05/17 08:55:49;;;;;;;2.97;2.10;;;;;;;;;;4980697;28;20050;-59
2023/05/17 08:58:20;;;;;;;3.22;1.83;;;;;;;;;;4980004;28;20041;-60
2023/05/17 09:00:46;;;;;;;2.65;2.05;;;;;;;;;;4976587;28;20124;-59
2023/05/17 09:03:17;;;;;;;2.38;1.73;;;;;;;;;;4978040;28;20510;-61
2023/05/17 09:05:43;;;;;;;2.80;1.88;;;;;;;;;;4984896;28;20895;-66
2023/05/17 09:08:12;;;;;;;1.75;1.65;;;;;;;;;;4978425;28;20050;-59
2023/05/17 09:10:41;;;;;;;3.28;1.75;;;;;;;;;;4979537;28;20030;-60
2023/05/17 09:13:07;;;;;;;1.80;1.70;;;;;;;;;;4979478;28;20027;-60
2023/05/17 09:15:33;;;;;;;4.40;2.08;;;;;;;;;;4981381;28;20076;-61
2023/05/17 09:17:59;;;;;;;2.72;2.45;;;;;;;;;;4976077;28;20533;-61
2023/05/17 09:20:35;;;;;;;2.95;2.75;;;;;;;;;;4976540;28;20485;-60
2023/05/17 09:23:12;;;;;;;4.25;2.03;;;;;;;;;;4980092;28;20037;-59
2023/05/17 09:25:41;;;;;;;2.15;1.95;;;;;;;;;;4975722;28;20057;-60
2023/05/17 09:28:06;;;;;;;1.83;1.63;;;;;;;;;;4976819;28;20023;-61
2023/05/17 09:30:33;;;;;;;1.50;1.40;;;;;;;;;;4979985;28;20043;-60
2023/05/17 09:33:05;;;;;;;1.77;1.58;;;;;;;;;;4977836;28;20080;-60
2023/05/17 09:35:31;;;;;;;2.90;1.65;;;;;;;;;;4977342;28;20049;-60
2023/05/17 09:38:04;;;;;;;1.75;1.52;;;;;;;;;;4977593;28;20035;-60
2023/05/17 09:40:29;;;;;;;1.80;1.70;;;;;;;;;;4978736;28;20045;-61
2023/05/17 09:42:58;;;;;;;1.70;1.60;;;;;;;;;;4980047;28;20038;-67
2023/05/17 09:45:23;;;;;;;2.28;2.08;;;;;;;;;;4976912;28;20049;-61
2023/05/17 09:47:50;;;;;;;2.88;1.80;;;;;;;;;;4979701;28;20026;-60
2023/05/17 09:50:19;;;;;;;1.73;1.63;;;;;;;;;;4980140;28;20580;-61
2023/05/17 09:52:45;;;;;;;1.55;1.45;;;;;;;;;;4980471;28;20034;-61
2023/05/17 09:55:10;;;;;;;2.08;1.98;;;;;;;;;;4977360;28;20054;-61
2023/05/17 09:57:37;;;;;;;5.35;2.88;;;;;;;;;;4979159;28;20046;-61
2023/05/17 10:00:07;;;;;;;3.53;1.60;;;;;;;;;;4980676;28;20157;-62
2023/05/17 10:02:33;;;;;;;2.10;1.52;;;;;;;;;;4985630;28;20158;-61
2023/05/17 10:05:00;;;;;;;3.72;1.65;;;;;;;;;;4982078;28;20027;-61
2023/05/17 10:07:26;;;;;;;3.08;1.38;;;;;;;;;;4984327;28;20069;-61
2023/05/17 10:09:53;;;;;;;1.20;1.10;;;;;;;;;;4982579;28;20498;-60
2023/05/17 10:12:21;;;;;;;1.58;1.38;;;;;;;;;;4981682;28;20249;-60
2023/05/17 10:14:49;;;;;;;2.75;1.40;;;;;;;;;;4982318;28;20508;-62
2023/05/17 10:17:16;;;;;;;1.35;1.25;;;;;;;;;;4981874;28;20510;-61
2023/05/17 10:19:42;;;;;;;1.35;1.15;;;;;;;;;;4980730;28;20038;-62
2023/05/17 10:22:08;;;;;;;1.33;1.30;;;;;;;;;;4982031;28;20049;-63
2023/05/17 10:24:35;;;;;;;1.30;1.30;;;;;;;;;;4981565;28;20038;-62
2023/05/17 10:27:01;;;;;;;1.02;0.95;;;;;;;;;;4980560;28;20042;-62
2023/05/17 10:29:27;;;;;;;1.55;1.20;;;;;;;;;;4982010;28;20049;-61
2023/05/17 10:31:52;;;;;;;1.88;0.98;;;;;;;;;;4970960;28;20042;-63
2023/05/17 10:34:18;;;;;;;1.55;1.33;;;;;;;;;;4984103;28;20494;-62
2023/05/17 10:36:45;;;;;;;1.10;1.00;;;;;;;;;;4985754;28;20047;-62
2023/05/17 10:39:10;;;;;;;2.22;1.20;;;;;;;;;;4980383;28;20038;-61
2023/05/17 10:41:38;;;;;;;1.00;1.00;;;;;;;;;;4982354;28;20482;-62
2023/05/17 10:44:06;;;;;;;0.95;0.95;;;;;;;;;;4982461;28;20308;-64
2023/05/17 10:46:32;;;;;;;1.40;1.17;;;;;;;;;;4981306;28;20049;-62
2023/05/17 10:48:59;;;;;;;1.40;1.30;;;;;;;;;;4980335;28;20057;-62
2023/05/17 10:51:32;;;;;;;1.88;1.23;;;;;;;;;;4982232;28;20557;-62
2023/05/17 10:54:08;;;;;;;1.52;1.35;;;;;;;;;;4984433;28;20523;-62
2023/05/17 10:56:33;;;;;;;1.42;1.40;;;;;;;;;;4984457;28;20042;-62
2023/05/17 10:59:18;;;;;;;1.40;1.35;;;;;;;;;;4980433;28;20040;-63
2023/05/17 11:01:53;;;;;;;3.47;1.53;;;;;;;;;;4980865;28;20507;-63
2023/05/17 11:04:24;;;;;;;2.67;1.95;;;;;;;;;;4996195;28;20293;-63
2023/05/17 11:07:12;;;;;;;1.98;1.75;;;;;;;;;;4980675;28;20101;-63
2023/05/17 11:09:39;;;;;;;4.53;1.67;;;;;;;;;;4980702;28;20637;-62
2023/05/17 11:12:06;;;;;;;2.00;1.50;;;;;;;;;;4978406;28;20030;-63
2023/05/17 11:14:44;;;;;;;2.78;1.73;;;;;;;;;;4984834;28;20166;-63
2023/05/17 11:17:13;;;;;;;2.92;2.40;;;;;;;;;;4979857;28;20125;-63
2023/05/17 11:19:52;;;;;;;3.30;2.28;;;;;;;;;;4982191;28;20053;-63
2023/05/17 11:22:17;;;;;;;1.70;1.60;;;;;;;;;;4981020;28;20537;-61
2023/05/17 11:24:44;;;;;;;3.05;2.70;;;;;;;;;;4981737;28;20331;-62
2023/05/17 11:27:11;;;;;;;2.17;2.08;;;;;;;;;;4979643;28;20370;-65
2023/05/17 11:29:38;;;;;;;2.88;1.83;;;;;;;;;;4981463;28;20122;-62
2023/05/17 11:32:06;;;;;;;11.23;2.33;;;;;;;;;;4978942;28;20059;-63
2023/05/17 11:34:32;;;;;;;3.28;1.90;;;;;;;;;;4979797;28;20273;-61
2023/05/17 11:36:57;;;;;;;2.25;2.05;;;;;;;;;;4982074;28;20042;-60
2023/05/17 11:39:23;;;;;;;4.10;2.00;;;;;;;;;;4980135;28;20049;-59
2023/05/17 11:41:50;;;;;;;1.73;1.63;;;;;;;;;;4979371;28;20069;-61
2023/05/17 11:44:21;;;;;;;1.73;1.63;;;;;;;;;;4981179;28;21036;-61
2023/05/17 11:46:47;;;;;;;2.42;1.73;;;;;;;;;;4978032;28;20490;-61
2023/05/17 11:49:13;;;;;;;4.03;2.28;;;;;;;;;;4983691;28;20027;-62
2023/05/17 11:51:40;;;;;;;3.63;2.42;;;;;;;;;;4978778;28;20083;-61
2023/05/17 11:54:06;;;;;;;2.92;2.45;;;;;;;;;;4978268;28;20485;-61
2023/05/17 11:56:35;;;;;;;5.97;1.85;;;;;;;;;;4981012;28;20049;-60
2023/05/17 11:59:01;;;;;;;2.40;2.20;;;;;;;;;;4994315;28;20031;-63
2023/05/17 12:01:27;;;;;;;2.40;2.20;;;;;;;;;;4977997;28;20030;-61
2023/05/17 12:03:59;;;;;;;2.85;2.10;;;;;;;;;;4978361;28;20136;-63
2023/05/17 12:06:24;;;;;;;5.72;3.28;;;;;;;;;;4978356;28;20087;-61
2023/05/17 12:08:50;;;;;;;2.53;2.33;;;;;;;;;;4980542;28;20205;-61
2023/05/17 12:11:16;;;;;;;4.68;2.00;;;;;;;;;;4978093;28;20027;-60
2023/05/17 12:13:42;;;;;;;2.70;2.25;;;;;;;;;;4979153;28;20054;-63
2023/05/17 12:16:10;;;;;;;5.45;2.47;;;;;;;;;;4979672;28;20486;-61
2023/05/17 12:18:35;;;;;;;10.60;2.70;;;;;;;;;;4980213;28;20129;-61
2023/05/17 12:21:01;;;;;;;4.70;2.20;;;;;;;;;;4981442;28;20449;-61
2023/05/17 12:23:30;;;;;;;2.42;2.22;;;;;;;;;;4978525;28;20428;-59
2023/05/17 12:26:14;;;;;;;5.85;2.60;;;;;;;;;;4977864;28;20042;-62
2023/05/17 12:28:42;;;;;;;5.38;2.58;;;;;;;;;;4982591;28;20738;-60
2023/05/17 12:31:11;;;;;;;6.38;2.45;;;;;;;;;;4978661;28;20097;-63
2023/05/17 12:33:39;;;;;;;2.40;2.20;;;;;;;;;;4980946;28;20120;-60
2023/05/17 12:36:06;;;;;;;5.25;2.63;;;;;;;;;;4984945;28;20553;-62
2023/05/17 12:38:33;;;;;;;6.07;2.47;;;;;;;;;;4979066;28;20387;-61
2023/05/17 12:41:02;;;;;;;3.25;2.17;;;;;;;;;;4980476;28;20042;-62
2023/05/17 12:43:30;;;;;;;3.92;2.42;;;;;;;;;;4983671;28;20046;-63
2023/05/17 12:46:06;;;;;;;4.80;2.58;;;;;;;;;;4978286;28;20130;-63
2023/05/17 12:48:32;;;;;;;3.20;2.97;;;;;;;;;;4979841;28;20042;-62
2023/05/17 12:51:04;;;;;;;2.95;2.38;;;;;;;;;;4980561;28;20038;-62
2023/05/17 12:53:36;;;;;;;3.78;2.35;;;;;;;;;;4977673;28;20375;-63
2023/05/17 12:56:02;;;;;;;2.73;2.00;;;;;;;;;;4985605;28;20041;-62
2023/05/17 12:58:27;;;;;;;3.63;2.40;;;;;;;;;;4981676;28;20038;-61
2023/05/17 13:01:03;;;;;;;4.18;2.63;;;;;;;;;;4981359;28;20058;-64
2023/05/17 13:03:30;;;;;;;3.03;2.33;;;;;;;;;;4977871;28;20046;-62
2023/05/17 13:06:03;;;;;;;2.65;2.40;;;;;;;;;;4979506;28;20479;-62
2023/05/17 13:08:29;;;;;;;2.78;2.47;;;;;;;;;;4978488;28;20029;-61
2023/05/17 13:11:04;;;;;;;3.35;2.45;;;;;;;;;;4978121;28;20041;-61
2023/05/17 13:13:31;;;;;;;4.03;2.42;;;;;;;;;;4978868;28;20498;-58
2023/05/17 13:15:57;;;;;;;4.70;2.70;;;;;;;;;;4980027;28;20064;-62
2023/05/17 13:18:23;;;;;;;6.63;3.35;;;;;;;;;;4979753;28;20047;-61
2023/05/17 13:20:50;;;;;;;3.92;2.40;;;;;;;;;;4980236;28;20624;-61
2023/05/17 13:23:15;;;;;;;6.15;2.92;;;;;;;;;;4976776;28;21024;-62
2023/05/17 13:25:41;;;;;;;3.67;2.38;;;;;;;;;;4979403;28;20042;-70
2023/05/17 13:28:06;;;;;;;3.33;3.05;;;;;;;;;;4981423;28;20038;-68
2023/05/17 13:30:32;;;;;;;4.65;3.58;;;;;;;;;;4980852;28;20046;-67
2023/05/17 13:32:57;;;;;;;3.15;2.85;;;;;;;;;;4979091;28;20423;-68
2023/05/17 13:35:23;;;;;;;5.75;3.28;;;;;;;;;;4981296;28;20041;-67
2023/05/17 13:37:48;;;;;;;4.95;3.25;;;;;;;;;;4984504;28;20038;-65
2023/05/17 13:40:14;;;;;;;6.38;3.20;;;;;;;;;;4981355;28;20471;-64
2023/05/17 13:42:39;;;;;;;3.90;3.17;;;;;;;;;;4980333;28;20072;-67
2023/05/17 13:45:07;;;;;;;3.70;2.80;;;;;;;;;;4980549;28;20080;-68
2023/05/17 13:47:33;;;;;;;7.07;2.70;;;;;;;;;;4982155;28;20050;-65
2023/05/17 13:50:02;;;;;;;5.43;2.67;;;;;;;;;;4981527;28;20034;-64
2023/05/17 13:52:28;;;;;;;3.72;2.67;;;;;;;;;;4981966;28;20113;-63
2023/05/17 13:54:54;;;;;;;5.47;3.20;;;;;;;;;;4983259;28;20031;-64
2023/05/17 13:57:20;;;;;;;3.17;2.85;;;;;;;;;;4981705;28;20481;-63
2023/05/17 13:59:45;;;;;;;4.40;3.15;;;;;;;;;;4981008;28;20485;-63
2023/05/17 14:02:11;;;;;;;3.78;3.28;;;;;;;;;;4981083;28;20034;-62
2023/05/17 14:04:36;;;;;;;3.08;2.78;;;;;;;;;;4980596;28;20034;-62
2023/05/17 14:07:02;;;;;;;5.05;3.08;;;;;;;;;;4979600;28;20050;-61
2023/05/17 14:09:33;;;;;;;3.78;3.47;;;;;;;;;;4979205;28;20062;-64
2023/05/17 14:11:59;;;;;;;6.13;3.95;;;;;;;;;;4987173;28;20525;-61
2023/05/17 14:14:26;;;;;;;4.55;3.75;;;;;;;;;;4979422;28;20093;-63
2023/05/17 14:16:52;;;;;;;4.57;3.85;;;;;;;;;;4979062;28;20037;-63
2023/05/17 14:19:18;;;;;;;7.07;5.18;;;;;;;;;;4980889;28;20063;-62
2023/05/17 14:21:43;;;;;;;4.15;3.75;;;;;;;;;;4980798;28;20074;-63
2023/05/17 14:24:09;;;;;;;4.28;3.33;;;;;;;;;;4983351;28;20034;-64
2023/05/17 14:26:35;;;;;;;6.47;3.67;;;;;;;;;;4983273;28;20462;-63
2023/05/17 14:29:00;;;;;;;4.60;3.20;;;;;;;;;;4980072;28;20057;-64
2023/05/17 14:31:28;;;;;;;5.10;4.57;;;;;;;;;;4982436;28;20027;-63
2023/05/17 14:33:54;;;;;;;5.38;3.92;;;;;;;;;;4980681;28;20305;-65
2023/05/17 14:36:19;;;;;;;4.50;4.10;;;;;;;;;;4982933;28;20038;-65
2023/05/17 14:38:45;;;;;;;6.03;3.92;;;;;;;;;;4980921;28;20034;-64
2023/05/17 14:41:10;;;;;;;3.55;3.25;;;;;;;;;;4981069;28;20125;-64